createdAt,value
2022-07-26T00:01:45.464Z,22.04
2022-07-26T00:04:42.954Z,22.21
2022-07-26T00:07:40.295Z,22.26
2022-07-26T00:10:42.850Z,22.22
2022-07-26T00:13:40.218Z,22.25
2022-07-26T00:16:38.948Z,22.22
2022-07-26T00:19:36.335Z,22.05
2022-07-26T00:22:35.886Z,21.98
2022-07-26T00:25:33.510Z,21.95
2022-07-26T00:28:31.149Z,22.06
2022-07-26T00:31:28.417Z,22.05
2022-07-26T00:34:26.101Z,21.96
2022-07-26T00:37:23.257Z,21.93
2022-07-26T00:40:20.291Z,21.91
2022-07-26T00:43:18.075Z,21.84
2022-07-26T00:46:15.006Z,21.83
2022-07-26T00:49:12.856Z,21.65
2022-07-26T00:52:10.690Z,21.54
2022-07-26T00:55:08.379Z,21.51
2022-07-26T00:58:06.479Z,21.45
2022-07-26T01:01:04.306Z,21.51
2022-07-26T01:04:00.757Z,21.61
2022-07-26T01:06:58.248Z,21.54
2022-07-26T01:09:55.174Z,21.56
2022-07-26T01:12:52.031Z,21.64
2022-07-26T01:15:49.204Z,21.69
2022-07-26T01:18:46.115Z,21.64
2022-07-26T01:21:43.314Z,21.69
2022-07-26T01:24:40.356Z,21.73
2022-07-26T01:27:41.097Z,21.61
2022-07-26T01:30:38.476Z,21.63
2022-07-26T01:33:35.254Z,21.70
2022-07-26T01:36:32.105Z,21.70
2022-07-26T01:39:29.226Z,21.62
2022-07-26T01:45:23.126Z,21.69
2022-07-26T01:48:20.043Z,21.64
2022-07-26T01:51:17.092Z,21.72
2022-07-26T01:54:15.384Z,21.60
2022-07-26T01:57:22.304Z,21.54
2022-07-26T02:00:19.368Z,21.43
2022-07-26T02:03:16.247Z,21.58
2022-07-26T02:06:13.119Z,21.58
2022-07-26T02:09:13.230Z,21.41
2022-07-26T02:12:10.246Z,21.61
2022-07-26T02:15:08.278Z,21.68
2022-07-26T02:18:05.263Z,21.71
2022-07-26T02:21:02.066Z,21.47
2022-07-26T02:23:59.035Z,21.26
2022-07-26T02:26:59.907Z,21.18
2022-07-26T02:29:57.175Z,21.29
2022-07-26T02:32:54.205Z,21.36
2022-07-26T02:35:51.507Z,21.52
2022-07-26T02:38:49.218Z,21.31
2022-07-26T02:41:46.276Z,21.21
2022-07-26T02:44:43.423Z,21.18
2022-07-26T02:47:50.155Z,21.19
2022-07-26T02:50:47.087Z,21.23
2022-07-26T02:53:44.340Z,21.29
2022-07-26T02:56:40.946Z,21.30
2022-07-26T02:59:38.406Z,21.35
2022-07-26T03:02:35.356Z,21.23
2022-07-26T03:05:32.268Z,21.10
2022-07-26T03:08:29.537Z,21.11
2022-07-26T03:11:26.117Z,21.12
2022-07-26T03:14:23.330Z,21.14
2022-07-26T03:17:20.621Z,21.17
2022-07-26T03:20:18.447Z,21.10
2022-07-26T03:23:15.489Z,21.09
2022-07-26T03:26:12.479Z,21.24
2022-07-26T03:29:09.441Z,21.40
2022-07-26T03:32:06.626Z,21.38
2022-07-26T03:35:04.702Z,21.34
2022-07-26T03:38:02.759Z,21.42
2022-07-26T03:41:00.297Z,21.38
2022-07-26T03:43:58.112Z,21.47
2022-07-26T03:46:55.625Z,21.64
2022-07-26T03:49:52.906Z,21.57
2022-07-26T03:52:50.343Z,21.54
2022-07-26T03:56:10.174Z,21.44
2022-07-26T03:59:08.513Z,21.41
2022-07-26T04:02:05.389Z,21.50
2022-07-26T04:05:02.191Z,21.56
2022-07-26T04:07:59.013Z,21.55
2022-07-26T04:10:56.482Z,21.54
2022-07-26T04:13:53.313Z,21.16
2022-07-26T04:16:50.391Z,21.08
2022-07-26T04:19:47.267Z,21.14
2022-07-26T04:22:45.148Z,21.16
2022-07-26T04:25:42.073Z,20.98
2022-07-26T04:28:39.325Z,20.82
2022-07-26T04:31:36.677Z,20.89
2022-07-26T04:34:34.317Z,20.88
2022-07-26T04:37:33.109Z,20.85
2022-07-26T04:40:33.655Z,20.67
2022-07-26T04:43:31.070Z,20.77
2022-07-26T04:46:28.666Z,20.57
2022-07-26T04:49:26.951Z,20.65
2022-07-26T04:52:24.413Z,20.74
2022-07-26T04:55:21.695Z,20.76
2022-07-26T04:58:19.127Z,20.78
2022-07-26T05:01:17.446Z,20.67
2022-07-26T05:04:14.309Z,20.49
2022-07-26T05:07:11.308Z,20.63
2022-07-26T05:10:09.025Z,20.73
2022-07-26T05:13:07.816Z,20.71
2022-07-26T05:16:05.761Z,20.59
2022-07-26T05:19:09.133Z,20.37
2022-07-26T05:22:06.497Z,20.42
2022-07-26T05:25:04.543Z,20.40
2022-07-26T05:28:01.440Z,20.60
2022-07-26T05:30:58.328Z,20.39
2022-07-26T05:33:55.374Z,20.54
2022-07-26T05:36:52.118Z,20.69
2022-07-26T05:39:49.276Z,20.70
2022-07-26T05:42:48.442Z,20.71
2022-07-26T05:45:45.277Z,20.65
2022-07-26T05:48:42.781Z,20.47
2022-07-26T05:51:40.126Z,20.53
2022-07-26T05:54:37.438Z,20.58
2022-07-26T05:57:34.590Z,20.73
2022-07-26T06:00:31.643Z,20.74
2022-07-26T06:03:30.171Z,20.75
2022-07-26T06:06:27.458Z,20.88
2022-07-26T06:09:24.948Z,20.79
2022-07-26T06:12:22.250Z,20.67
2022-07-26T06:15:19.261Z,20.56
2022-07-26T06:18:16.209Z,20.53
2022-07-26T06:21:14.224Z,20.61
2022-07-26T06:24:11.787Z,20.67
2022-07-26T06:27:09.361Z,20.62
2022-07-26T06:30:08.031Z,20.85
2022-07-26T06:33:06.102Z,20.54
2022-07-26T06:36:03.443Z,20.58
2022-07-26T06:39:00.166Z,20.42
2022-07-26T06:41:57.631Z,20.56
2022-07-26T06:44:54.965Z,20.62
2022-07-26T06:47:52.276Z,20.49
2022-07-26T06:50:49.226Z,20.68
2022-07-26T06:53:47.034Z,20.64
2022-07-26T06:56:44.667Z,20.46
2022-07-26T06:59:42.490Z,20.66
2022-07-26T07:02:39.640Z,20.73
2022-07-26T07:05:36.330Z,20.64
2022-07-26T07:08:34.571Z,20.64
2022-07-26T07:11:32.350Z,20.67
2022-07-26T07:14:29.563Z,20.64
2022-07-26T07:17:26.424Z,20.55
2022-07-26T07:20:23.776Z,20.70
2022-07-26T07:23:23.448Z,20.94
2022-07-26T07:26:20.704Z,21.05
2022-07-26T07:29:20.277Z,21.11
2022-07-26T07:32:19.956Z,20.86
2022-07-26T07:35:17.707Z,20.92
2022-07-26T07:38:16.565Z,20.73
2022-07-26T07:41:15.379Z,20.74
2022-07-26T07:44:12.611Z,20.55
2022-07-26T07:47:09.561Z,20.68
2022-07-26T07:50:07.483Z,20.55
2022-07-26T07:53:04.377Z,20.53
2022-07-26T07:56:01.459Z,20.56
2022-07-26T07:58:59.967Z,20.44
2022-07-26T08:01:57.622Z,20.61
2022-07-26T08:04:55.784Z,20.64
2022-07-26T08:07:56.954Z,20.35
2022-07-26T08:10:54.559Z,20.08
2022-07-26T08:13:53.634Z,20.06
2022-07-26T08:16:52.293Z,19.75
2022-07-26T08:19:50.186Z,19.86
2022-07-26T08:22:47.598Z,19.79
2022-07-26T08:25:55.631Z,19.81
2022-07-26T08:28:58.556Z,19.79
2022-07-26T08:31:57.663Z,19.97
2022-07-26T08:34:54.659Z,20.26
2022-07-26T08:38:11.958Z,20.16
2022-07-26T08:41:09.631Z,20.28
2022-07-26T08:44:07.602Z,20.36
2022-07-26T08:47:07.757Z,20.16
2022-07-26T08:50:04.933Z,19.91
2022-07-26T08:53:07.072Z,19.69
2022-07-26T08:56:07.374Z,19.51
2022-07-26T08:59:06.367Z,19.65
2022-07-26T09:02:08.532Z,19.97
2022-07-26T09:05:06.681Z,20.08
2022-07-26T09:08:26.133Z,19.95
2022-07-26T09:11:23.435Z,20.19
2022-07-26T09:14:20.474Z,20.22
2022-07-26T09:17:19.290Z,20.07
2022-07-26T09:20:24.491Z,20.03
2022-07-26T09:23:23.850Z,20.26
2022-07-26T09:26:21.952Z,20.47
2022-07-26T09:29:19.682Z,20.43
2022-07-26T09:32:26.090Z,20.59
2022-07-26T09:35:50.571Z,20.80
2022-07-26T09:38:45.406Z,20.69
2022-07-26T09:41:42.576Z,20.74
2022-07-26T09:44:40.949Z,20.84
2022-07-26T09:47:45.651Z,20.97
2022-07-26T09:50:47.365Z,20.88
2022-07-26T09:53:46.038Z,20.87
2022-07-26T09:56:48.760Z,20.95
2022-07-26T09:59:46.832Z,21.09
2022-07-26T10:02:44.754Z,21.05
2022-07-26T10:05:42.192Z,20.95
2022-07-26T10:08:39.670Z,20.91
2022-07-26T10:11:43.675Z,21.00
2022-07-26T10:14:46.354Z,21.12
2022-07-26T10:17:43.651Z,21.08
2022-07-26T10:20:42.297Z,20.75
2022-07-26T10:23:44.194Z,20.90
2022-07-26T10:26:43.273Z,21.05
2022-07-26T10:29:41.857Z,21.25
2022-07-26T10:32:38.818Z,21.47
2022-07-26T10:35:42.317Z,21.54
2022-07-26T10:38:39.580Z,21.55
2022-07-26T10:41:40.870Z,21.70
2022-07-26T10:44:56.818Z,21.91
2022-07-26T10:48:14.858Z,22.01
2022-07-26T10:51:24.993Z,21.77
2022-07-26T10:54:22.562Z,21.24
2022-07-26T10:57:20.009Z,20.89
2022-07-26T11:00:19.989Z,20.72
2022-07-26T11:03:17.473Z,20.69
2022-07-26T11:06:19.037Z,20.43
2022-07-26T11:09:18.994Z,20.33
2022-07-26T11:12:19.132Z,20.48
2022-07-26T11:15:17.902Z,20.64
2022-07-26T11:18:19.882Z,20.53
2022-07-26T11:21:17.734Z,20.42
2022-07-26T11:24:14.777Z,20.60
2022-07-26T11:27:12.813Z,20.88
2022-07-26T11:30:10.250Z,21.10
2022-07-26T11:33:07.667Z,21.45
2022-07-26T11:36:05.100Z,21.65
2022-07-26T11:39:03.554Z,21.78
2022-07-26T11:42:10.301Z,21.58
2022-07-26T11:45:10.042Z,21.50
2022-07-26T11:48:07.919Z,21.75
2022-07-26T11:51:20.593Z,21.95
2022-07-26T11:54:18.345Z,22.05
2022-07-26T11:57:15.947Z,21.94
2022-07-26T12:00:13.678Z,21.76
2022-07-26T12:03:10.638Z,21.71
2022-07-26T12:06:09.390Z,21.70
2022-07-26T12:09:06.490Z,21.67
2022-07-26T12:12:05.867Z,21.57
2022-07-26T12:15:06.198Z,21.49
2022-07-26T12:18:05.017Z,21.22
2022-07-26T12:21:07.434Z,21.21
2022-07-26T12:24:05.006Z,21.09
2022-07-26T12:27:14.282Z,20.93
2022-07-26T12:30:11.540Z,20.78
2022-07-26T12:33:08.668Z,20.69
2022-07-26T12:36:28.139Z,20.84
2022-07-26T12:39:26.845Z,20.93
2022-07-26T12:42:34.274Z,20.98
2022-07-26T12:45:33.070Z,21.06
2022-07-26T12:48:30.708Z,21.21
2022-07-26T12:51:28.491Z,21.21
2022-07-26T12:54:29.484Z,21.29
2022-07-26T12:57:27.432Z,21.27
2022-07-26T13:00:24.942Z,21.05
2022-07-26T13:03:21.983Z,21.10
2022-07-26T13:06:18.764Z,21.14
2022-07-26T13:09:17.165Z,21.29
2022-07-26T13:12:15.159Z,21.48
2022-07-26T13:15:12.404Z,21.15
2022-07-26T13:18:09.988Z,21.02
2022-07-26T13:21:06.991Z,21.22
2022-07-26T13:24:03.697Z,21.15
2022-07-26T13:27:06.594Z,21.25
2022-07-26T13:30:03.942Z,21.58
2022-07-26T13:33:00.696Z,21.79
2022-07-26T13:35:57.625Z,21.65
2022-07-26T13:38:54.518Z,21.84
2022-07-26T13:41:51.933Z,21.57
2022-07-26T13:44:48.939Z,21.65
2022-07-26T13:47:45.779Z,21.70
2022-07-26T13:50:42.968Z,21.81
2022-07-26T13:53:55.166Z,22.03
2022-07-26T13:56:53.016Z,22.02
2022-07-26T13:59:50.228Z,21.70
2022-07-26T14:02:47.765Z,21.64
2022-07-26T14:05:44.511Z,21.71
2022-07-26T14:08:42.039Z,21.65
2022-07-26T14:11:38.700Z,21.44
2022-07-26T14:14:36.272Z,21.39
2022-07-26T14:17:33.652Z,21.48
2022-07-26T14:20:30.454Z,21.52
2022-07-26T14:23:27.914Z,21.52
2022-07-26T14:26:24.939Z,21.62
2022-07-26T14:29:24.895Z,21.45
2022-07-26T14:32:22.529Z,21.35
2022-07-26T14:35:19.787Z,21.61
2022-07-26T14:38:23.189Z,21.62
2022-07-26T14:41:22.683Z,21.65
2022-07-26T14:44:20.076Z,21.66
2022-07-26T14:47:16.511Z,21.84
2022-07-26T14:50:14.816Z,21.71
2022-07-26T14:53:15.678Z,21.60
2022-07-26T14:56:12.735Z,21.48
2022-07-26T14:59:09.721Z,21.41
2022-07-26T15:02:06.897Z,21.40
2022-07-26T15:05:04.017Z,21.45
2022-07-26T15:08:05.811Z,21.42
2022-07-26T15:11:05.572Z,21.55
2022-07-26T15:14:06.463Z,21.75
2022-07-26T15:20:01.225Z,21.42
2022-07-26T15:22:59.427Z,21.29
2022-07-26T15:25:56.620Z,21.29
2022-07-26T15:28:53.671Z,21.23
2022-07-26T15:31:50.871Z,21.14
2022-07-26T15:34:47.831Z,21.15
2022-07-26T15:37:45.372Z,21.09
2022-07-26T15:40:43.008Z,21.16
2022-07-26T15:43:48.163Z,21.24
2022-07-26T15:46:48.190Z,21.40
2022-07-26T15:49:45.789Z,21.48
2022-07-26T15:52:44.801Z,21.58
2022-07-26T15:55:41.823Z,21.71
2022-07-26T15:58:38.925Z,21.84
2022-07-26T16:01:36.112Z,22.02
2022-07-26T16:04:32.762Z,22.00
2022-07-26T16:07:30.083Z,22.13
2022-07-26T16:10:28.624Z,22.21
2022-07-26T16:13:25.713Z,22.37
2022-07-26T16:16:23.326Z,22.09
2022-07-26T16:19:20.725Z,21.86
2022-07-26T16:22:17.965Z,21.51
2022-07-26T16:25:16.085Z,21.55
2022-07-26T16:28:16.021Z,21.70
2022-07-26T16:31:13.319Z,21.86
2022-07-26T16:34:10.683Z,21.85
2022-07-26T16:37:07.851Z,21.87
2022-07-26T16:40:08.842Z,21.88
2022-07-26T16:43:11.819Z,22.00
2022-07-26T16:46:09.954Z,21.96
2022-07-26T16:49:10.388Z,22.08
2022-07-26T16:52:07.973Z,22.15
2022-07-26T16:55:07.673Z,22.31
2022-07-26T16:58:05.234Z,22.47
2022-07-26T17:01:03.348Z,22.59
2022-07-26T17:04:00.797Z,22.40
2022-07-26T17:07:23.380Z,22.42
2022-07-26T17:10:14.800Z,22.32
2022-07-26T17:13:11.814Z,22.25
2022-07-26T17:16:08.977Z,22.00
2022-07-26T17:19:05.966Z,21.85
2022-07-26T17:22:03.290Z,21.95
2022-07-26T17:25:01.078Z,21.88
2022-07-26T17:27:58.173Z,21.72
2022-07-26T17:30:55.016Z,21.88
2022-07-26T17:33:52.141Z,21.75
2022-07-26T17:36:56.047Z,21.62
2022-07-26T17:39:55.249Z,21.38
2022-07-26T17:42:54.826Z,21.41
2022-07-26T17:45:52.081Z,21.46
2022-07-26T17:48:49.136Z,21.27
2022-07-26T17:51:46.090Z,21.29
2022-07-26T17:54:43.222Z,21.34
2022-07-26T17:57:40.316Z,21.29
2022-07-26T18:00:38.001Z,21.31
2022-07-26T18:03:34.838Z,21.19
2022-07-26T18:06:31.774Z,21.07
2022-07-26T18:09:29.218Z,20.86
2022-07-26T18:12:26.345Z,20.81
2022-07-26T18:15:24.052Z,20.67
2022-07-26T18:18:21.208Z,20.76
2022-07-26T18:21:18.182Z,20.77
2022-07-26T18:24:17.318Z,20.79
2022-07-26T18:27:15.146Z,20.75
2022-07-26T18:30:12.345Z,20.81
2022-07-26T18:33:14.382Z,20.78
2022-07-26T18:36:11.768Z,20.91
2022-07-26T18:39:09.534Z,20.95
2022-07-26T18:42:07.625Z,21.03
2022-07-26T18:45:05.621Z,21.12
2022-07-26T18:48:03.237Z,21.07
2022-07-26T18:51:00.388Z,21.08
2022-07-26T18:53:58.099Z,21.13
2022-07-26T18:56:55.502Z,21.18
2022-07-26T18:59:53.246Z,21.21
2022-07-26T19:02:52.862Z,21.20
2022-07-26T19:05:50.293Z,20.93
2022-07-26T19:08:48.342Z,20.83
2022-07-26T19:11:49.066Z,20.76
2022-07-26T19:14:46.829Z,20.76
2022-07-26T19:17:44.342Z,20.76
2022-07-26T19:20:40.907Z,20.64
2022-07-26T19:23:38.135Z,20.57
2022-07-26T19:26:36.083Z,20.65
2022-07-26T19:29:33.304Z,20.62
2022-07-26T19:32:33.513Z,20.64
2022-07-26T19:35:31.221Z,20.69
2022-07-26T19:38:27.835Z,20.78
2022-07-26T19:41:25.189Z,20.77
2022-07-26T19:44:22.146Z,20.61
2022-07-26T19:47:19.173Z,20.48
2022-07-26T19:50:15.820Z,20.43
2022-07-26T19:53:13.515Z,20.42
2022-07-26T19:56:11.037Z,20.25
2022-07-26T19:59:08.419Z,20.11
2022-07-26T20:02:06.337Z,20.23
2022-07-26T20:05:04.542Z,20.26
2022-07-26T20:08:02.413Z,20.32
2022-07-26T20:11:00.185Z,20.23
2022-07-26T20:13:56.827Z,20.23
2022-07-26T20:16:56.995Z,20.32
2022-07-26T20:19:54.215Z,20.32
2022-07-26T20:22:50.966Z,20.26
2022-07-26T20:25:48.403Z,20.31
2022-07-26T20:28:45.241Z,20.39
2022-07-26T20:31:42.491Z,20.45
2022-07-26T20:34:40.462Z,20.32
2022-07-26T20:37:38.238Z,20.21
2022-07-26T20:40:35.249Z,20.15
2022-07-26T20:43:32.245Z,19.96
2022-07-26T20:46:32.394Z,19.92
2022-07-26T20:49:30.051Z,20.04
2022-07-26T20:52:27.002Z,20.00
2022-07-26T20:55:24.476Z,19.95
2022-07-26T20:58:22.471Z,19.93
2022-07-26T21:01:20.379Z,19.87
2022-07-26T21:04:18.472Z,19.78
2022-07-26T21:07:16.266Z,19.82
2022-07-26T21:10:12.977Z,19.70
2022-07-26T21:13:10.298Z,19.60
2022-07-26T21:16:09.693Z,19.67
2022-07-26T21:19:07.604Z,19.64
2022-07-26T21:22:05.345Z,19.51
2022-07-26T21:25:02.259Z,19.44
2022-07-26T21:28:00.605Z,19.45
2022-07-26T21:30:58.062Z,19.54
2022-07-26T21:33:55.445Z,19.54
2022-07-26T21:36:53.107Z,19.47
2022-07-26T21:39:50.597Z,19.51
2022-07-26T21:42:48.307Z,19.63
2022-07-26T21:45:45.263Z,19.72
2022-07-26T21:48:42.652Z,19.74
2022-07-26T21:51:40.139Z,19.73
2022-07-26T21:54:37.537Z,19.74
2022-07-26T21:57:35.093Z,19.46
2022-07-26T22:00:32.736Z,19.56
2022-07-26T22:03:30.814Z,19.75
2022-07-26T22:06:29.378Z,19.51
2022-07-26T22:09:26.341Z,19.62
2022-07-26T22:12:23.337Z,19.80
2022-07-26T22:15:20.338Z,19.62
2022-07-26T22:18:17.522Z,19.65
2022-07-26T22:21:15.269Z,19.47
2022-07-26T22:24:12.415Z,19.14
2022-07-26T22:27:09.379Z,19.01
2022-07-26T22:30:08.226Z,18.58
2022-07-26T22:33:07.878Z,18.77
2022-07-26T22:36:05.659Z,18.82
2022-07-26T22:39:04.251Z,19.05
2022-07-26T22:42:14.809Z,18.79
2022-07-26T22:45:13.659Z,18.61
2022-07-26T22:48:11.257Z,19.02
2022-07-26T22:51:08.580Z,19.26
2022-07-26T22:54:06.290Z,19.47
2022-07-26T22:57:03.627Z,19.54
2022-07-26T23:00:01.683Z,19.54
2022-07-26T23:02:59.291Z,19.42
2022-07-26T23:05:56.097Z,19.57
2022-07-26T23:08:54.569Z,19.65
2022-07-26T23:11:52.562Z,19.68
2022-07-26T23:14:50.442Z,19.57
2022-07-26T23:17:47.102Z,19.49
2022-07-26T23:20:44.198Z,18.70
2022-07-26T23:23:41.426Z,18.18
2022-07-26T23:26:38.391Z,18.43
2022-07-26T23:29:35.585Z,18.70
2022-07-26T23:32:33.099Z,18.96
2022-07-26T23:35:30.257Z,19.18
2022-07-26T23:38:27.254Z,19.18
2022-07-26T23:41:24.336Z,19.24
2022-07-26T23:44:21.441Z,19.32
2022-07-26T23:47:19.534Z,19.37
2022-07-26T23:50:18.419Z,19.32
2022-07-26T23:53:15.179Z,19.34
2022-07-26T23:56:12.532Z,19.12
2022-07-26T23:59:09.932Z,19.14
